Time;durP1;ratioP1;P1;durP2;ratioP2;P2;SDS_P1;SDS_P2;PMS_P1;PMS_P2;Temp;Humidity;BMP_temperature;BMP_pressure;BME280_temperature;BME280_humidity;BME280_pressure;Samples;Min_cycle;Max_cycle;Signal;HPM_P1;HPM_P2
2022/04/20 00:01:26;;;;;;;15.93;2.60;;;;;;;;;;5088275;28;20051;-74
2022/04/20 00:03:56;;;;;;;7.90;1.85;;;;;;;;;;5089931;28;20059;-74
2022/04/20 00:06:27;;;;;;;6.65;2.20;;;;;;;;;;5089531;28;20528;-73
2022/04/20 00:08:57;;;;;;;;;;;;;;;;;;5089454;28;20139;-73
2022/04/20 00:11:27;;;;;;;10.40;3.30;;;;;;;;;;5089911;28;19924;-74
2022/04/20 00:13:57;;;;;;;13.57;2.53;;;;;;;;;;5089854;28;20063;-74
2022/04/20 00:16:27;;;;;;;15.10;2.53;;;;;;;;;;5089062;28;20491;-74
2022/04/20 00:18:58;;;;;;;15.40;2.45;;;;;;;;;;5089293;28;20051;-74
2022/04/20 00:21:27;;;;;;;13.52;2.22;;;;;;;;;;5088543;28;20043;-74
2022/04/20 00:24:01;;;;;;;9.98;2.05;;;;;;;;;;5088466;28;20048;-74
2022/04/20 00:26:31;;;;;;;12.88;1.83;;;;;;;;;;5088846;28;20055;-74
2022/04/20 00:29:00;;;;;;;13.73;2.33;;;;;;;;;;5070477;28;20052;-73
2022/04/20 00:31:33;;;;;;;6.95;1.80;;;;;;;;;;5087801;28;20499;-74
2022/04/20 00:34:03;;;;;;;14.25;2.13;;;;;;;;;;5088823;28;20400;-75
2022/04/20 00:36:33;;;;;;;15.70;2.03;;;;;;;;;;5088372;28;20078;-74
2022/04/20 00:39:03;;;;;;;12.45;2.75;;;;;;;;;;5070513;28;20056;-74
2022/04/20 00:41:33;;;;;;;14.70;2.60;;;;;;;;;;5087697;28;20507;-74
2022/04/20 00:44:04;;;;;;;12.98;2.05;;;;;;;;;;5088306;28;20054;-72
2022/04/20 00:46:35;;;;;;;14.50;2.28;;;;;;;;;;5069627;28;20056;-72
2022/04/20 00:49:06;;;;;;;15.65;2.90;;;;;;;;;;5086134;28;20056;-73
2022/04/20 00:51:36;;;;;;;15.85;2.20;;;;;;;;;;5070045;28;20976;-73
2022/04/20 00:54:06;;;;;;;15.02;2.35;;;;;;;;;;5070579;28;20491;-73
2022/04/20 00:56:36;;;;;;;7.15;2.45;;;;;;;;;;5087516;28;20051;-73
2022/04/20 00:59:07;;;;;;;11.20;1.73;;;;;;;;;;5067239;28;20060;-73
2022/04/20 01:01:37;;;;;;;12.13;2.25;;;;;;;;;;5087248;28;20119;-73
2022/04/20 01:04:07;;;;;;;11.88;1.92;;;;;;;;;;5087696;28;20058;-73
2022/04/20 01:07:22;;;;;;;14.88;2.10;;;;;;;;;;5084694;28;20506;-73
2022/04/20 01:09:55;;;;;;;17.35;1.95;;;;;;;;;;5094043;28;20061;-73
2022/04/20 01:12:48;;;;;;;21.90;2.30;;;;;;;;;;5069319;28;20085;-73
2022/04/20 01:15:47;;;;;;;14.30;2.35;;;;;;;;;;5078521;28;20068;-73
2022/04/20 01:18:22;;;;;;;13.18;2.30;;;;;;;;;;5068926;28;20515;-73
2022/04/20 01:20:52;;;;;;;12.68;2.42;;;;;;;;;;5087711;28;20048;-73
2022/04/20 01:23:33;;;;;;;21.33;3.38;;;;;;;;;;5090580;28;20056;-73
2022/04/20 01:26:42;;;;;;;7.90;2.20;;;;;;;;;;5005415;28;20057;-73
2022/04/20 01:29:43;;;;;;;;;;;;;;;;;;5005492;28;20065;-73
2022/04/20 01:32:32;;;;;;;10.13;2.10;;;;;;;;;;5075638;28;19923;-73
2022/04/20 01:35:08;;;;;;;15.13;2.72;;;;;;;;;;5088144;28;20407;-72
2022/04/20 01:37:40;;;;;;;17.50;2.17;;;;;;;;;;5068189;28;20526;-72
2022/04/20 01:40:10;;;;;;;18.25;2.70;;;;;;;;;;5068701;28;20048;-73
2022/04/20 01:42:40;;;;;;;15.38;2.70;;;;;;;;;;5068923;28;20051;-72
2022/04/20 01:45:11;;;;;;;13.98;2.70;;;;;;;;;;5068364;28;20063;-73
2022/04/20 01:48:06;;;;;;;14.75;2.60;;;;;;;;;;5068814;28;20056;-72
2022/04/20 01:54:00;;;;;;;14.95;2.70;;;;;;;;;;5068447;28;20051;-72
2022/04/20 01:56:41;;;;;;;16.17;2.72;;;;;;;;;;5068170;28;20056;-72
2022/04/20 01:59:32;;;;;;;8.93;2.65;;;;;;;;;;5068010;28;20059;-72
2022/04/20 02:02:35;;;;;;;16.27;2.33;;;;;;;;;;5068110;28;20047;-73
2022/04/20 02:05:32;;;;;;;16.10;2.53;;;;;;;;;;5063284;28;20419;-72
2022/04/20 02:08:22;;;;;;;19.92;2.90;;;;;;;;;;5067859;28;20522;-72
2022/04/20 02:11:18;;;;;;;11.43;2.40;;;;;;;;;;5084101;28;20514;-73
2022/04/20 02:13:54;;;;;;;12.23;1.90;;;;;;;;;;5067967;28;20044;-72
2022/04/20 02:16:24;;;;;;;15.73;2.15;;;;;;;;;;5086783;28;20761;-73
2022/04/20 02:19:12;;;;;;;11.00;2.30;;;;;;;;;;5091107;28;20052;-73
2022/04/20 02:21:53;;;;;;;17.20;2.97;;;;;;;;;;5068098;28;20055;-74
2022/04/20 02:24:23;;;;;;;11.55;2.42;;;;;;;;;;5067726;28;20056;-74
2022/04/20 02:26:53;;;;;;;13.50;2.58;;;;;;;;;;5068802;28;21121;-73
2022/04/20 02:29:23;;;;;;;16.50;2.43;;;;;;;;;;5086705;28;20426;-73
2022/04/20 02:31:53;;;;;;;13.10;2.55;;;;;;;;;;5068232;28;20293;-73
2022/04/20 02:34:23;;;;;;;18.33;2.88;;;;;;;;;;5067998;28;20056;-72
2022/04/20 02:36:54;;;;;;;12.20;2.63;;;;;;;;;;5068083;28;20052;-73
2022/04/20 02:39:24;;;;;;;18.33;2.60;;;;;;;;;;5086103;28;20644;-72
2022/04/20 02:41:55;;;;;;;10.75;2.28;;;;;;;;;;5067968;28;20384;-73
2022/04/20 02:44:25;;;;;;;11.23;2.58;;;;;;;;;;5086148;28;20067;-73
2022/04/20 02:46:55;;;;;;;13.50;2.40;;;;;;;;;;5086043;28;20048;-72
2022/04/20 02:49:25;;;;;;;16.80;2.60;;;;;;;;;;5085635;28;20048;-72
2022/04/20 02:51:55;;;;;;;9.50;1.92;;;;;;;;;;5067285;28;20044;-73
2022/04/20 02:54:29;;;;;;;9.38;3.10;;;;;;;;;;5067731;28;20051;-74
2022/04/20 02:57:00;;;;;;;18.15;2.33;;;;;;;;;;5067328;28;20056;-72
2022/04/20 02:59:30;;;;;;;11.98;2.65;;;;;;;;;;5067740;28;20487;-73
2022/04/20 03:02:03;;;;;;;12.43;1.95;;;;;;;;;;5067398;28;20052;-73
2022/04/20 03:04:34;;;;;;;14.85;2.67;;;;;;;;;;5068073;28;20052;-72
2022/04/20 03:07:04;;;;;;;24.55;2.88;;;;;;;;;;5067101;28;20051;-72
2022/04/20 03:09:42;;;;;;;13.40;2.50;;;;;;;;;;5067892;28;20044;-72
2022/04/20 03:12:14;;;;;;;10.80;2.03;;;;;;;;;;5066649;28;20515;-73
2022/04/20 03:14:54;;;;;;;12.38;2.40;;;;;;;;;;5051052;28;20040;-72
2022/04/20 03:17:25;;;;;;;20.13;2.22;;;;;;;;;;5067424;28;20048;-72
2022/04/20 03:19:56;;;;;;;18.08;2.50;;;;;;;;;;5067712;28;20098;-74
2022/04/20 03:22:25;;;;;;;16.25;2.40;;;;;;;;;;5066107;28;20048;-75
2022/04/20 03:24:55;;;;;;;15.43;2.38;;;;;;;;;;5067080;28;20060;-71
2022/04/20 03:27:34;;;;;;;13.88;3.05;;;;;;;;;;5067969;28;20059;-72
2022/04/20 03:30:06;;;;;;;13.80;2.65;;;;;;;;;;5066867;28;20535;-74
2022/04/20 03:32:37;;;;;;;11.80;2.60;;;;;;;;;;5067050;28;20436;-73
2022/04/20 03:35:08;;;;;;;12.07;2.50;;;;;;;;;;5086680;28;20051;-74
2022/04/20 03:37:38;;;;;;;5.45;2.00;;;;;;;;;;5066546;28;20049;-74
2022/04/20 03:40:09;;;;;;;13.27;2.58;;;;;;;;;;5067009;28;20087;-72
2022/04/20 03:42:39;;;;;;;10.60;2.15;;;;;;;;;;5066813;28;20063;-72
2022/04/20 03:45:09;;;;;;;16.55;2.47;;;;;;;;;;5067443;28;20052;-72
2022/04/20 03:47:39;;;;;;;16.60;2.17;;;;;;;;;;5085873;28;20825;-72
2022/04/20 03:50:10;;;;;;;10.85;2.35;;;;;;;;;;5085419;28;20047;-72
2022/04/20 03:52:40;;;;;;;15.60;2.47;;;;;;;;;;5067309;28;20048;-71
2022/04/20 03:55:12;;;;;;;9.90;2.58;;;;;;;;;;5067795;28;20052;-72
2022/04/20 03:57:42;;;;;;;14.52;2.80;;;;;;;;;;5067099;28;20071;-72
2022/04/20 04:00:13;;;;;;;10.73;2.40;;;;;;;;;;5067801;28;20055;-72
2022/04/20 04:02:53;;;;;;;11.07;2.20;;;;;;;;;;5066371;28;20044;-71
2022/04/20 04:05:32;;;;;;;19.20;3.55;;;;;;;;;;5051748;28;20551;-72
2022/04/20 04:08:10;;;;;;;14.13;2.28;;;;;;;;;;5066578;28;20059;-73
2022/04/20 04:10:41;;;;;;;12.10;2.30;;;;;;;;;;5067586;28;20090;-73
2022/04/20 04:13:11;;;;;;;11.48;2.33;;;;;;;;;;5066949;28;20067;-72
2022/04/20 04:15:47;;;;;;;12.88;2.25;;;;;;;;;;5066954;28;20067;-72
2022/04/20 04:18:17;;;;;;;18.10;3.03;;;;;;;;;;5067279;28;20063;-72
2022/04/20 04:20:50;;;;;;;14.52;2.40;;;;;;;;;;5066819;28;20059;-73
2022/04/20 04:23:20;;;;;;;19.17;2.42;;;;;;;;;;5066413;28;20430;-72
2022/04/20 04:26:22;;;;;;;12.32;2.70;;;;;;;;;;5054169;28;20064;-72
2022/04/20 04:28:53;;;;;;;15.40;2.78;;;;;;;;;;5070322;28;20044;-72
2022/04/20 04:31:23;;;;;;;13.25;2.65;;;;;;;;;;5070590;28;20071;-72
2022/04/20 04:33:55;;;;;;;8.35;2.60;;;;;;;;;;5069817;28;20056;-72
2022/04/20 04:36:25;;;;;;;9.90;2.30;;;;;;;;;;5069896;28;20059;-73
2022/04/20 04:38:58;;;;;;;19.10;2.90;;;;;;;;;;5070757;28;20048;-73
2022/04/20 04:41:32;;;;;;;13.63;2.30;;;;;;;;;;5070440;28;20055;-72
2022/04/20 04:44:03;;;;;;;12.25;2.97;;;;;;;;;;5070309;28;20060;-72
2022/04/20 04:49:28;;;;;;;9.52;2.53;;;;;;;;;;5069662;28;20052;-73
2022/04/20 04:52:00;;;;;;;9.82;2.83;;;;;;;;;;5069983;28;20055;-73
2022/04/20 04:54:30;;;;;;;7.60;2.22;;;;;;;;;;5070270;28;20055;-72
2022/04/20 04:57:00;;;;;;;8.65;2.40;;;;;;;;;;5070313;28;20499;-72
2022/04/20 04:59:37;;;;;;;11.63;2.70;;;;;;;;;;5067346;28;20056;-72
2022/04/20 05:02:09;;;;;;;7.75;2.10;;;;;;;;;;5068907;28;20396;-73
2022/04/20 05:04:40;;;;;;;10.02;2.30;;;;;;;;;;5067093;28;20048;-72
2022/04/20 05:07:11;;;;;;;13.07;3.20;;;;;;;;;;5066701;28;20079;-73
2022/04/20 05:09:55;;;;;;;16.45;2.97;;;;;;;;;;5068260;28;20518;-73
2022/04/20 05:12:26;;;;;;;20.38;3.08;;;;;;;;;;5066691;28;20423;-72
2022/04/20 05:14:57;;;;;;;9.48;2.90;;;;;;;;;;5050708;28;20056;-72
2022/04/20 05:17:27;;;;;;;7.68;2.30;;;;;;;;;;5065924;28;20056;-72
2022/04/20 05:19:59;;;;;;;14.32;2.85;;;;;;;;;;5066375;28;20048;-72
2022/04/20 05:22:31;;;;;;;16.13;3.30;;;;;;;;;;5066728;28;20056;-72
2022/04/20 05:25:01;;;;;;;12.38;2.42;;;;;;;;;;5066643;28;20475;-73
2022/04/20 05:27:31;;;;;;;13.15;2.72;;;;;;;;;;5065823;28;20500;-73
2022/04/20 05:30:09;;;;;;;8.98;2.75;;;;;;;;;;5066112;28;20059;-72
2022/04/20 05:32:43;;;;;;;16.45;2.67;;;;;;;;;;5065336;28;20053;-72
2022/04/20 05:35:18;;;;;;;3.97;1.75;;;;;;;;;;5063201;28;20052;-72
2022/04/20 05:43:43;;;;;;;6.32;2.17;;;;;;;;;;5065053;28;20047;-72
2022/04/20 05:46:17;;;;;;;13.13;2.53;;;;;;;;;;5065463;28;20492;-73
2022/04/20 05:48:54;;;;;;;10.23;2.42;;;;;;;;;;5049393;28;20052;-72
2022/04/20 05:51:25;;;;;;;8.98;2.20;;;;;;;;;;5065490;28;20056;-73
2022/04/20 05:53:55;;;;;;;9.25;2.22;;;;;;;;;;5049809;28;20064;-72
2022/04/20 05:56:27;;;;;;;10.95;2.35;;;;;;;;;;5065377;28;20053;-73
2022/04/20 05:58:57;;;;;;;8.50;2.58;;;;;;;;;;5065587;28;20063;-73
2022/04/20 06:01:29;;;;;;;10.73;3.65;;;;;;;;;;5049952;28;20056;-73
2022/04/20 06:04:05;;;;;;;17.35;2.72;;;;;;;;;;5065607;28;20499;-73
2022/04/20 06:06:35;;;;;;;9.47;2.43;;;;;;;;;;5066859;28;20056;-73
2022/04/20 06:09:14;;;;;;;12.35;2.88;;;;;;;;;;5066432;28;20666;-72
2022/04/20 06:12:17;;;;;;;7.68;2.20;;;;;;;;;;5065528;28;20060;-73
2022/04/20 06:15:08;;;;;;;13.63;2.67;;;;;;;;;;5065656;28;20538;-72
2022/04/20 06:17:50;;;;;;;12.95;2.60;;;;;;;;;;5066766;28;20048;-72
2022/04/20 06:20:24;;;;;;;4.32;1.80;;;;;;;;;;5065327;28;20056;-73
2022/04/20 06:23:03;;;;;;;9.38;2.30;;;;;;;;;;5070348;28;20480;-72
2022/04/20 06:25:55;;;;;;;8.63;2.53;;;;;;;;;;5068836;28;20076;-72
2022/04/20 06:28:38;;;;;;;17.42;3.25;;;;;;;;;;5065436;28;20056;-73
2022/04/20 06:31:39;;;;;;;4.63;2.10;;;;;;;;;;5047165;28;20056;-73
2022/04/20 06:34:25;;;;;;;15.35;2.13;;;;;;;;;;5065448;28;20060;-73
2022/04/20 06:37:19;;;;;;;5.68;1.77;;;;;;;;;;5059207;28;20056;-72
2022/04/20 06:39:54;;;;;;;9.77;2.28;;;;;;;;;;5066400;28;20063;-73
2022/04/20 06:42:56;;;;;;;9.27;2.13;;;;;;;;;;5032587;28;20053;-72
2022/04/20 06:45:44;;;;;;;15.00;2.30;;;;;;;;;;5066136;28;20381;-73
2022/04/20 06:48:34;;;;;;;7.32;2.20;;;;;;;;;;5065325;28;20065;-73
2022/04/20 07:00:25;;;;;;;8.55;2.33;;;;;;;;;;5067370;28;20048;-72
2022/04/20 07:03:14;;;;;;;5.43;2.22;;;;;;;;;;5088535;28;20063;-73
2022/04/20 07:06:00;;;;;;;5.93;1.98;;;;;;;;;;5067350;28;20063;-72
2022/04/20 07:08:32;;;;;;;8.23;2.38;;;;;;;;;;5091011;28;20055;-73
2022/04/20 07:11:17;;;;;;;5.90;2.35;;;;;;;;;;5067738;28;20055;-72
2022/04/20 07:13:51;;;;;;;7.85;2.22;;;;;;;;;;5068179;28;20055;-72
2022/04/20 07:16:22;;;;;;;5.90;2.28;;;;;;;;;;5067822;28;20059;-73
2022/04/20 07:19:06;;;;;;;10.30;2.55;;;;;;;;;;5067387;28;20044;-73
2022/04/20 07:21:55;;;;;;;6.10;2.50;;;;;;;;;;5088704;28;20052;-73
2022/04/20 07:24:28;;;;;;;5.65;2.00;;;;;;;;;;5086806;28;20423;-72
2022/04/20 07:27:01;;;;;;;6.38;1.92;;;;;;;;;;5091503;28;20048;-72
2022/04/20 07:29:49;;;;;;;11.43;2.20;;;;;;;;;;5090100;28;20499;-73
2022/04/20 07:32:30;;;;;;;4.22;1.90;;;;;;;;;;5068073;28;20048;-72
2022/04/20 07:35:21;;;;;;;6.55;2.00;;;;;;;;;;5091969;28;20044;-73
2022/04/20 07:38:05;;;;;;;8.15;2.20;;;;;;;;;;5067545;28;20060;-72
2022/04/20 07:40:54;;;;;;;5.38;1.90;;;;;;;;;;5087382;28;20048;-73
2022/04/20 07:43:43;;;;;;;8.25;2.25;;;;;;;;;;5091280;28;20052;-72
2022/04/20 07:46:27;;;;;;;15.55;2.10;;;;;;;;;;5067895;28;20510;-73
2022/04/20 07:52:20;;;;;;;9.13;2.20;;;;;;;;;;5067882;28;20063;-72
2022/04/20 07:55:15;;;;;;;6.55;2.55;;;;;;;;;;5067389;28;20055;-71
2022/04/20 07:57:56;;;;;;;7.53;3.25;;;;;;;;;;5066840;28;20989;-72
2022/04/20 08:01:03;;;;;;;7.53;3.20;;;;;;;;;;4968563;28;20043;-72
2022/04/20 08:03:51;;;;;;;23.35;4.70;;;;;;;;;;5083422;28;20060;-73
2022/04/20 08:06:35;;;;;;;20.63;4.72;;;;;;;;;;5071587;28;20048;-73
2022/04/20 08:09:06;;;;;;;26.88;3.40;;;;;;;;;;5071125;28;20063;-73
2022/04/20 08:11:36;;;;;;;23.17;3.90;;;;;;;;;;5071581;28;20071;-73
2022/04/20 08:14:11;;;;;;;10.60;4.00;;;;;;;;;;5070594;28;20048;-72
2022/04/20 08:16:52;;;;;;;16.08;5.50;;;;;;;;;;5070870;28;20079;-73
2022/04/20 08:19:25;;;;;;;13.38;4.10;;;;;;;;;;5094371;28;20064;-72
2022/04/20 08:22:13;;;;;;;17.35;5.40;;;;;;;;;;5093050;28;20051;-73
2022/04/20 08:24:43;;;;;;;20.83;4.47;;;;;;;;;;5089544;28;20048;-72
2022/04/20 08:27:14;;;;;;;8.95;4.05;;;;;;;;;;5088733;28;20055;-73
2022/04/20 08:29:45;;;;;;;7.38;3.45;;;;;;;;;;5088392;28;20415;-72
2022/04/20 08:32:17;;;;;;;12.57;3.28;;;;;;;;;;5089615;28;20051;-72
2022/04/20 08:34:48;;;;;;;14.82;3.55;;;;;;;;;;5088915;28;20040;-73
2022/04/20 08:37:29;;;;;;;7.78;3.50;;;;;;;;;;5088907;28;20507;-73
2022/04/20 08:39:58;;;;;;;11.90;3.00;;;;;;;;;;5089172;28;20048;-72
2022/04/20 08:42:30;;;;;;;8.77;3.13;;;;;;;;;;5088797;28;20047;-74
2022/04/20 08:45:05;;;;;;;12.23;2.85;;;;;;;;;;5089644;28;20039;-74
2022/04/20 08:47:37;;;;;;;5.55;2.30;;;;;;;;;;5088984;28;20051;-73
2022/04/20 08:50:09;;;;;;;6.43;2.60;;;;;;;;;;5087567;28;20048;-74
2022/04/20 08:52:42;;;;;;;3.85;2.03;;;;;;;;;;5088544;28;20048;-73
2022/04/20 08:55:16;;;;;;;10.48;3.05;;;;;;;;;;5088480;28;20051;-73
2022/04/20 08:57:52;;;;;;;4.35;2.42;;;;;;;;;;5088551;28;20056;-73
2022/04/20 09:00:25;;;;;;;16.33;3.33;;;;;;;;;;5088557;28;20052;-73
2022/04/20 09:02:58;;;;;;;6.57;2.35;;;;;;;;;;5088615;28;20064;-76
2022/04/20 09:05:33;;;;;;;6.68;2.80;;;;;;;;;;5088534;28;20047;-72
2022/04/20 09:08:12;;;;;;;8.02;2.45;;;;;;;;;;5088699;28;20395;-75
2022/04/20 09:10:45;;;;;;;10.98;2.55;;;;;;;;;;5087917;28;20114;-73
2022/04/20 09:13:15;;;;;;;7.72;3.20;;;;;;;;;;5088785;28;20745;-74
2022/04/20 09:15:47;;;;;;;5.55;2.50;;;;;;;;;;5070424;28;20387;-72
2022/04/20 09:18:22;;;;;;;5.40;2.75;;;;;;;;;;5085400;28;20051;-73
2022/04/20 09:20:52;;;;;;;9.05;3.10;;;;;;;;;;5065993;28;20051;-71
2022/04/20 09:23:29;;;;;;;9.07;3.08;;;;;;;;;;5084231;28;20777;-74
2022/04/20 09:26:11;;;;;;;11.35;3.65;;;;;;;;;;5087552;28;21193;-76
2022/04/20 09:29:01;;;;;;;15.38;3.40;;;;;;;;;;5088694;28;20048;-73
2022/04/20 09:31:48;;;;;;;17.73;4.05;;;;;;;;;;5088217;28;20040;-75
2022/04/20 09:34:33;;;;;;;9.27;3.05;;;;;;;;;;5088098;28;20062;-75
2022/04/20 09:37:14;;;;;;;17.67;3.55;;;;;;;;;;5087660;28;20048;-75
2022/04/20 09:39:48;;;;;;;14.35;3.22;;;;;;;;;;5086503;28;20525;-75
2022/04/20 09:42:20;;;;;;;9.75;3.67;;;;;;;;;;5087180;28;20055;-76
2022/04/20 09:44:59;;;;;;;16.30;3.78;;;;;;;;;;5088177;28;20044;-75
2022/04/20 09:50:29;;;;;;;24.10;4.65;;;;;;;;;;5087966;28;20036;-73
2022/04/20 09:53:05;;;;;;;14.55;4.22;;;;;;;;;;5068940;28;20060;-75
2022/04/20 09:55:40;;;;;;;11.82;4.20;;;;;;;;;;5087656;28;20044;-76
2022/04/20 09:58:18;;;;;;;10.77;4.43;;;;;;;;;;5087028;28;20056;-76
2022/04/20 10:00:54;;;;;;;6.97;3.72;;;;;;;;;;5087097;28;20051;-75
2022/04/20 10:03:33;;;;;;;11.82;4.50;;;;;;;;;;5087271;28;20545;-73
2022/04/20 10:06:05;;;;;;;11.20;4.32;;;;;;;;;;5087473;28;20044;-75
2022/04/20 10:08:34;;;;;;;;;;;;;;;;;;5088412;28;20048;-75
2022/04/20 10:11:05;;;;;;;10.48;4.70;;;;;;;;;;5087551;28;19920;-74
2022/04/20 10:13:36;;;;;;;15.15;4.60;;;;;;;;;;5087745;28;20039;-77
2022/04/20 10:16:11;;;;;;;12.18;4.50;;;;;;;;;;5086931;28;20052;-72
2022/04/20 10:18:46;;;;;;;10.70;3.85;;;;;;;;;;5070280;28;20055;-73
2022/04/20 10:21:17;;;;;;;7.30;3.22;;;;;;;;;;5087134;28;20056;-73
2022/04/20 10:23:49;;;;;;;12.00;4.25;;;;;;;;;;5068104;28;20058;-74
2022/04/20 10:26:22;;;;;;;31.38;5.63;;;;;;;;;;5087243;28;20055;-74
2022/04/20 10:29:08;;;;;;;10.10;3.90;;;;;;;;;;5085154;28;20071;-74
2022/04/20 10:31:46;;;;;;;22.55;4.90;;;;;;;;;;5068353;28;20059;-72
2022/04/20 10:34:21;;;;;;;19.88;5.50;;;;;;;;;;5068159;28;20399;-72
2022/04/20 10:37:28;;;;;;;17.13;4.05;;;;;;;;;;5076776;28;20051;-75
2022/04/20 10:40:15;;;;;;;17.17;4.90;;;;;;;;;;5068248;28;20083;-76
2022/04/20 10:43:21;;;;;;;16.25;4.50;;;;;;;;;;5068425;28;20059;-74
2022/04/20 10:46:07;;;;;;;13.48;4.05;;;;;;;;;;5086950;28;20484;-76
2022/04/20 10:48:44;;;;;;;24.55;4.82;;;;;;;;;;5085903;28;20055;-76
2022/04/20 10:51:24;;;;;;;19.17;4.65;;;;;;;;;;5086642;28;20044;-74
2022/04/20 10:53:55;;;;;;;24.65;5.15;;;;;;;;;;5086533;28;20499;-75
2022/04/20 10:56:26;;;;;;;17.35;4.95;;;;;;;;;;5067782;28;20060;-78
2022/04/20 10:59:05;;;;;;;35.47;8.80;;;;;;;;;;5086807;28;20433;-76
2022/04/20 11:01:54;;;;;;;26.67;7.72;;;;;;;;;;5086642;28;20052;-73
2022/04/20 11:04:39;;;;;;;16.90;5.10;;;;;;;;;;5068624;28;20048;-75
2022/04/20 11:07:15;;;;;;;23.23;5.72;;;;;;;;;;5086749;28;20403;-73
2022/04/20 11:09:46;;;;;;;35.25;5.90;;;;;;;;;;5085831;28;20059;-72
2022/04/20 11:21:23;;;;;;;20.08;3.63;;;;;;;;;;5089250;28;20052;-74
2022/04/20 11:24:13;;;;;;;;;;;;;;;;;;5086724;28;20044;-72
2022/04/20 11:26:52;;;;;;;8.90;2.67;;;;;;;;;;5085291;28;19924;-74
2022/04/20 11:29:25;;;;;;;7.20;2.38;;;;;;;;;;5086360;28;20052;-74
2022/04/20 11:32:00;;;;;;;11.57;3.47;;;;;;;;;;5085996;28;20048;-73
2022/04/20 11:35:15;;;;;;;17.08;2.63;;;;;;;;;;5054769;28;20056;-74
2022/04/20 11:37:56;;;;;;;15.45;2.55;;;;;;;;;;5090402;28;20059;-73
2022/04/20 11:40:27;;;;;;;8.27;2.40;;;;;;;;;;5088757;28;20502;-73
2022/04/20 11:43:05;;;;;;;7.88;2.40;;;;;;;;;;5071928;28;20044;-73
2022/04/20 11:45:54;;;;;;;;;;;;;;;;;;5090802;28;20032;-74
2022/04/20 11:48:24;;;;;;;10.07;2.75;;;;;;;;;;5089678;28;20006;-74
2022/04/20 11:50:57;;;;;;;9.43;2.10;;;;;;;;;;5089427;28;20120;-73
2022/04/20 11:53:40;;;;;;;9.48;2.80;;;;;;;;;;5089279;28;20052;-73
2022/04/20 11:56:40;;;;;;;16.77;2.90;;;;;;;;;;5071123;28;20642;-73
2022/04/20 11:59:10;;;;;;;19.70;3.10;;;;;;;;;;5089430;28;20052;-73
2022/04/20 12:01:41;;;;;;;13.85;4.22;;;;;;;;;;5089608;28;20067;-74
2022/04/20 12:04:12;;;;;;;28.63;4.88;;;;;;;;;;5089031;28;20044;-73
2022/04/20 12:06:52;;;;;;;22.50;3.77;;;;;;;;;;5090081;28;20047;-74
2022/04/20 12:09:28;;;;;;;9.93;2.22;;;;;;;;;;5089349;28;20312;-76
2022/04/20 12:12:01;;;;;;;10.50;2.72;;;;;;;;;;5089342;28;20411;-74
2022/04/20 12:14:37;;;;;;;13.70;2.53;;;;;;;;;;5090074;28;20055;-73
2022/04/20 12:17:11;;;;;;;5.20;1.80;;;;;;;;;;5089231;28;20052;-74
2022/04/20 12:19:44;;;;;;;8.60;2.75;;;;;;;;;;5070564;28;20052;-75
2022/04/20 12:22:18;;;;;;;5.57;2.45;;;;;;;;;;5089375;28;20044;-75
2022/04/20 12:25:03;;;;;;;9.43;2.33;;;;;;;;;;5089047;28;20044;-74
2022/04/20 12:27:50;;;;;;;8.38;3.03;;;;;;;;;;5090200;28;20044;-74
2022/04/20 12:30:45;;;;;;;6.68;2.60;;;;;;;;;;5088950;28;20411;-73
2022/04/20 12:33:25;;;;;;;16.13;3.47;;;;;;;;;;5088595;28;20506;-74
2022/04/20 12:36:06;;;;;;;12.07;3.28;;;;;;;;;;5070352;28;20059;-73
2022/04/20 12:38:56;;;;;;;14.18;2.40;;;;;;;;;;5088738;28;20060;-74
2022/04/20 12:41:47;;;;;;;9.30;2.77;;;;;;;;;;5088193;28;20040;-74
2022/04/20 12:44:35;;;;;;;9.30;2.78;;;;;;;;;;5088463;28;20063;-75
2022/04/20 12:47:11;;;;;;;11.98;2.88;;;;;;;;;;5087496;28;20051;-76
2022/04/20 12:49:53;;;;;;;8.07;2.72;;;;;;;;;;5088478;28;20546;-74
2022/04/20 12:52:31;;;;;;;27.42;4.22;;;;;;;;;;5088580;28;20434;-74
2022/04/20 12:55:09;;;;;;;18.33;4.20;;;;;;;;;;5088386;28;20056;-75
2022/04/20 13:03:38;;;;;;;7.20;2.30;;;;;;;;;;5088299;28;20044;-75
2022/04/20 13:06:11;;;;;;;9.18;2.40;;;;;;;;;;5088571;28;20059;-74
2022/04/20 13:08:45;;;;;;;8.55;2.50;;;;;;;;;;5069931;28;20048;-74
2022/04/20 13:11:17;;;;;;;7.75;2.28;;;;;;;;;;5088359;28;20048;-74
2022/04/20 13:14:09;;;;;;;11.07;2.10;;;;;;;;;;5070148;28;20076;-74
2022/04/20 13:16:39;;;;;;;4.70;1.92;;;;;;;;;;5087950;28;20048;-75
2022/04/20 13:19:09;;;;;;;8.98;1.98;;;;;;;;;;5088523;28;20519;-75
2022/04/20 13:21:42;;;;;;;12.02;2.50;;;;;;;;;;5088321;28;20047;-75
2022/04/20 13:24:12;;;;;;;6.55;1.80;;;;;;;;;;5088554;28;20059;-75
2022/04/20 13:29:30;;;;;;;4.28;1.70;;;;;;;;;;5088075;28;20056;-77
2022/04/20 13:32:00;;;;;;;7.97;2.03;;;;;;;;;;5088232;28;20395;-75
2022/04/20 13:34:30;;;;;;;4.60;2.00;;;;;;;;;;5088507;28;20040;-78
2022/04/20 13:37:00;;;;;;;7.68;2.05;;;;;;;;;;5069977;28;20649;-75
2022/04/20 13:39:30;;;;;;;14.25;3.20;;;;;;;;;;5087719;28;20056;-75
2022/04/20 13:42:00;;;;;;;13.65;3.58;;;;;;;;;;5087579;28;20392;-75
2022/04/20 13:44:29;;;;;;;6.90;2.17;;;;;;;;;;5068351;28;20082;-75
2022/04/20 13:46:59;;;;;;;12.57;2.10;;;;;;;;;;5087565;28;20047;-75
2022/04/20 13:49:29;;;;;;;10.75;2.47;;;;;;;;;;5088090;28;20521;-75
2022/04/20 13:52:00;;;;;;;9.68;2.10;;;;;;;;;;5087369;28;20684;-75
2022/04/20 13:54:31;;;;;;;6.32;2.03;;;;;;;;;;5087905;28;20494;-75
2022/04/20 13:57:01;;;;;;;12.02;2.00;;;;;;;;;;5087408;28;20710;-75
2022/04/20 13:59:31;;;;;;;8.93;1.70;;;;;;;;;;5087498;28;20055;-75
2022/04/20 14:02:01;;;;;;;5.75;1.75;;;;;;;;;;5087403;28;20048;-74
2022/04/20 14:04:31;;;;;;;5.18;1.70;;;;;;;;;;5087090;28;20048;-75
2022/04/20 14:07:00;;;;;;;9.60;2.28;;;;;;;;;;5087428;28;20043;-75
2022/04/20 14:09:31;;;;;;;12.83;2.20;;;;;;;;;;5087646;28;20051;-75
2022/04/20 14:12:02;;;;;;;6.00;1.92;;;;;;;;;;5087439;28;20305;-74
2022/04/20 14:14:32;;;;;;;7.13;1.83;;;;;;;;;;5087332;28;20067;-75
2022/04/20 14:17:02;;;;;;;8.95;1.75;;;;;;;;;;5086655;28;20052;-75
2022/04/20 14:19:33;;;;;;;5.82;2.10;;;;;;;;;;5069941;28;20055;-74
2022/04/20 14:22:03;;;;;;;8.57;1.83;;;;;;;;;;5087168;28;20051;-75
2022/04/20 14:24:34;;;;;;;7.47;1.75;;;;;;;;;;5087020;28;20487;-75
2022/04/20 14:32:41;;;;;;;13.25;2.00;;;;;;;;;;5086612;28;20059;-75
2022/04/20 14:35:12;;;;;;;6.07;1.85;;;;;;;;;;5068497;28;20095;-75
2022/04/20 14:37:42;;;;;;;5.53;1.70;;;;;;;;;;5087088;28;20048;-76
2022/04/20 14:40:12;;;;;;;5.28;1.33;;;;;;;;;;5086550;28;20055;-75
2022/04/20 14:42:43;;;;;;;12.33;1.50;;;;;;;;;;5085629;28;20423;-75
2022/04/20 14:45:15;;;;;;;8.50;1.67;;;;;;;;;;5086738;28;20282;-76
2022/04/20 14:47:45;;;;;;;5.53;1.70;;;;;;;;;;5086527;28;20044;-75
2022/04/20 14:50:16;;;;;;;7.47;1.73;;;;;;;;;;5086322;28;20048;-75
2022/04/20 14:52:46;;;;;;;8.18;1.63;;;;;;;;;;5086160;28;20048;-75
2022/04/20 14:55:16;;;;;;;7.10;1.60;;;;;;;;;;5086977;28;20052;-76
2022/04/20 14:57:46;;;;;;;5.30;1.63;;;;;;;;;;5086625;28;20769;-75
2022/04/20 15:00:16;;;;;;;6.00;1.90;;;;;;;;;;5086555;28;20511;-75
2022/04/20 15:02:50;;;;;;;7.35;1.63;;;;;;;;;;5087372;28;20290;-75
2022/04/20 15:05:20;;;;;;;9.95;2.10;;;;;;;;;;5086204;28;20059;-74
2022/04/20 15:07:51;;;;;;;3.47;1.55;;;;;;;;;;5085421;28;20364;-74
2022/04/20 15:10:22;;;;;;;7.38;2.10;;;;;;;;;;5085885;28;20055;-75
2022/04/20 15:12:52;;;;;;;;;;;;;;;;;;5087017;28;20043;-76
2022/04/20 15:15:22;;;;;;;4.80;1.43;;;;;;;;;;5086422;28;19920;-76
2022/04/20 15:17:53;;;;;;;8.05;1.70;;;;;;;;;;5086384;28;20406;-78
2022/04/20 15:20:24;;;;;;;5.22;1.45;;;;;;;;;;5085654;28;20044;-76
2022/04/20 15:22:55;;;;;;;5.18;1.60;;;;;;;;;;5086114;28;20067;-77
2022/04/20 15:25:27;;;;;;;13.45;1.77;;;;;;;;;;5086428;28;20514;-76
2022/04/20 15:27:57;;;;;;;5.55;1.38;;;;;;;;;;5084948;28;20052;-76
2022/04/20 15:30:37;;;;;;;9.50;1.67;;;;;;;;;;5085445;28;20052;-76
2022/04/20 15:33:08;;;;;;;8.90;1.70;;;;;;;;;;5085914;28;20527;-76
2022/04/20 15:35:37;;;;;;;4.78;1.50;;;;;;;;;;5086320;28;20032;-75
2022/04/20 15:38:08;;;;;;;7.38;1.50;;;;;;;;;;5085660;28;20131;-77
2022/04/20 15:40:41;;;;;;;8.18;2.03;;;;;;;;;;5085459;28;20059;-73
2022/04/20 15:43:11;;;;;;;5.53;1.60;;;;;;;;;;5085870;28;20052;-76
2022/04/20 15:45:41;;;;;;;;;;;;;;;;;;5086591;28;20514;-78
2022/04/20 15:48:11;;;;;;;7.93;1.80;;;;;;;;;;5086307;28;19919;-76
2022/04/20 15:50:41;;;;;;;;;;;;;;;;;;5086443;28;20063;-79
2022/04/20 15:53:10;;;;;;;3.35;1.42;;;;;;;;;;5067397;28;20367;-76
2022/04/20 16:01:17;;;;;;;4.32;1.50;;;;;;;;;;5085916;28;20399;-76
2022/04/20 16:03:47;;;;;;;9.65;1.40;;;;;;;;;;5085942;28;20048;-76
2022/04/20 16:06:17;;;;;;;13.18;1.85;;;;;;;;;;5086024;28;20044;-75
2022/04/20 16:08:48;;;;;;;7.85;1.50;;;;;;;;;;5084791;28;20051;-76
2022/04/20 16:11:18;;;;;;;4.30;1.23;;;;;;;;;;5085538;28;20044;-75
2022/04/20 16:13:49;;;;;;;10.65;1.35;;;;;;;;;;5085045;28;20047;-77
2022/04/20 16:16:18;;;;;;;;;;;;;;;;;;5085944;28;20051;-76
2022/04/20 16:18:48;;;;;;;6.10;1.10;;;;;;;;;;5085668;28;19947;-74
2022/04/20 16:21:18;;;;;;;2.80;1.33;;;;;;;;;;5088561;28;20047;-75
2022/04/20 16:23:48;;;;;;;4.65;1.50;;;;;;;;;;5070332;28;20054;-74
2022/04/20 16:26:18;;;;;;;4.90;1.53;;;;;;;;;;5089500;28;20067;-75